sensor_id;sensor_type;location;lat;lon;timestamp;P1;durP1;ratioP1;P2;durP2;ratioP2
4963;SDS011;2497;47.410;9.740;2022-08-19T00:00:07;4.73;;;3.00;;
4963;SDS011;2497;47.410;9.740;2022-08-19T00:02:37;8.57;;;4.23;;
4963;SDS011;2497;47.410;9.740;2022-08-19T00:05:05;11.30;;;6.13;;
4963;SDS011;2497;47.410;9.740;2022-08-19T00:07:33;13.80;;;6.83;;
4963;SDS011;2497;47.410;9.740;2022-08-19T00:10:01;10.00;;;6.40;;
4963;SDS011;2497;47.410;9.740;2022-08-19T00:12:29;13.57;;;6.77;;
4963;SDS011;2497;47.410;9.740;2022-08-19T00:14:56;9.07;;;4.83;;
4963;SDS011;2497;47.410;9.740;2022-08-19T00:17:23;13.27;;;4.20;;
4963;SDS011;2497;47.410;9.740;2022-08-19T00:19:52;4.80;;;2.97;;
4963;SDS011;2497;47.410;9.740;2022-08-19T00:22:19;3.30;;;2.70;;
4963;SDS011;2497;47.410;9.740;2022-08-19T00:24:47;6.00;;;2.80;;
4963;SDS011;2497;47.410;9.740;2022-08-19T00:27:14;5.20;;;2.40;;
4963;SDS011;2497;47.410;9.740;2022-08-19T00:29:42;2.90;;;2.37;;
4963;SDS011;2497;47.410;9.740;2022-08-19T00:32:09;3.70;;;2.77;;
4963;SDS011;2497;47.410;9.740;2022-08-19T00:34:37;5.30;;;3.23;;
4963;SDS011;2497;47.410;9.740;2022-08-19T00:37:05;6.13;;;3.43;;
4963;SDS011;2497;47.410;9.740;2022-08-19T00:39:33;5.10;;;3.03;;
4963;SDS011;2497;47.410;9.740;2022-08-19T00:42:00;8.40;;;5.10;;
4963;SDS011;2497;47.410;9.740;2022-08-19T00:44:28;14.07;;;7.10;;
4963;SDS011;2497;47.410;9.740;2022-08-19T00:46:57;18.17;;;8.23;;
4963;SDS011;2497;47.410;9.740;2022-08-19T00:49:25;12.40;;;6.37;;
4963;SDS011;2497;47.410;9.740;2022-08-19T00:51:57;10.80;;;5.83;;
4963;SDS011;2497;47.410;9.740;2022-08-19T00:54:31;13.03;;;3.80;;
4963;SDS011;2497;47.410;9.740;2022-08-19T00:56:59;9.00;;;4.77;;
4963;SDS011;2497;47.410;9.740;2022-08-19T00:59:28;9.63;;;5.67;;
4963;SDS011;2497;47.410;9.740;2022-08-19T01:01:56;10.13;;;5.47;;
4963;SDS011;2497;47.410;9.740;2022-08-19T01:04:23;8.17;;;5.43;;
4963;SDS011;2497;47.410;9.740;2022-08-19T01:06:51;18.87;;;8.70;;
4963;SDS011;2497;47.410;9.740;2022-08-19T01:09:18;30.93;;;12.57;;
4963;SDS011;2497;47.410;9.740;2022-08-19T01:11:47;28.03;;;13.73;;
4963;SDS011;2497;47.410;9.740;2022-08-19T01:14:15;29.80;;;14.23;;
4963;SDS011;2497;47.410;9.740;2022-08-19T01:16:43;46.57;;;19.03;;
4963;SDS011;2497;47.410;9.740;2022-08-19T01:19:14;50.77;;;22.57;;
4963;SDS011;2497;47.410;9.740;2022-08-19T01:21:47;51.97;;;22.23;;
4963;SDS011;2497;47.410;9.740;2022-08-19T01:24:20;58.23;;;23.30;;
4963;SDS011;2497;47.410;9.740;2022-08-19T01:26:48;49.00;;;20.93;;
4963;SDS011;2497;47.410;9.740;2022-08-19T01:29:16;32.07;;;15.50;;
4963;SDS011;2497;47.410;9.740;2022-08-19T01:31:43;34.43;;;15.57;;
4963;SDS011;2497;47.410;9.740;2022-08-19T01:34:11;29.87;;;14.73;;
4963;SDS011;2497;47.410;9.740;2022-08-19T01:36:40;33.03;;;15.63;;
4963;SDS011;2497;47.410;9.740;2022-08-19T01:39:11;33.30;;;16.50;;
4963;SDS011;2497;47.410;9.740;2022-08-19T01:41:41;35.97;;;16.10;;
4963;SDS011;2497;47.410;9.740;2022-08-19T01:44:09;35.97;;;17.70;;
4963;SDS011;2497;47.410;9.740;2022-08-19T01:46:37;34.17;;;16.33;;
4963;SDS011;2497;47.410;9.740;2022-08-19T01:49:05;28.50;;;14.40;;
4963;SDS011;2497;47.410;9.740;2022-08-19T01:51:33;29.43;;;15.50;;
4963;SDS011;2497;47.410;9.740;2022-08-19T01:54:01;29.43;;;15.70;;
4963;SDS011;2497;47.410;9.740;2022-08-19T01:56:29;30.97;;;15.27;;
4963;SDS011;2497;47.410;9.740;2022-08-19T01:58:59;33.03;;;14.87;;
4963;SDS011;2497;47.410;9.740;2022-08-19T02:01:28;31.53;;;15.37;;
4963;SDS011;2497;47.410;9.740;2022-08-19T02:03:57;33.83;;;15.43;;
4963;SDS011;2497;47.410;9.740;2022-08-19T02:06:25;28.17;;;14.60;;
4963;SDS011;2497;47.410;9.740;2022-08-19T02:08:53;28.83;;;14.63;;
4963;SDS011;2497;47.410;9.740;2022-08-19T02:11:22;31.87;;;15.30;;
4963;SDS011;2497;47.410;9.740;2022-08-19T02:13:51;30.97;;;15.17;;
4963;SDS011;2497;47.410;9.740;2022-08-19T02:16:21;29.60;;;13.80;;
4963;SDS011;2497;47.410;9.740;2022-08-19T02:18:49;27.27;;;14.43;;
4963;SDS011;2497;47.410;9.740;2022-08-19T02:21:17;26.90;;;15.00;;
4963;SDS011;2497;47.410;9.740;2022-08-19T02:23:46;33.07;;;15.60;;
4963;SDS011;2497;47.410;9.740;2022-08-19T02:26:13;34.43;;;17.70;;
4963;SDS011;2497;47.410;9.740;2022-08-19T02:28:41;35.73;;;17.70;;
4963;SDS011;2497;47.410;9.740;2022-08-19T02:31:09;32.97;;;17.47;;
4963;SDS011;2497;47.410;9.740;2022-08-19T02:33:39;34.97;;;17.80;;
4963;SDS011;2497;47.410;9.740;2022-08-19T02:36:07;34.40;;;16.53;;
4963;SDS011;2497;47.410;9.740;2022-08-19T02:38:37;29.83;;;16.20;;
4963;SDS011;2497;47.410;9.740;2022-08-19T02:41:04;29.63;;;15.07;;
4963;SDS011;2497;47.410;9.740;2022-08-19T02:43:35;31.03;;;16.40;;
4963;SDS011;2497;47.410;9.740;2022-08-19T02:46:10;30.60;;;17.53;;
4963;SDS011;2497;47.410;9.740;2022-08-19T02:48:41;38.00;;;18.60;;
4963;SDS011;2497;47.410;9.740;2022-08-19T02:51:08;29.30;;;16.00;;
4963;SDS011;2497;47.410;9.740;2022-08-19T02:53:42;30.50;;;15.40;;
4963;SDS011;2497;47.410;9.740;2022-08-19T02:56:10;33.10;;;16.20;;
4963;SDS011;2497;47.410;9.740;2022-08-19T02:58:37;33.57;;;16.93;;
4963;SDS011;2497;47.410;9.740;2022-08-19T03:01:05;31.00;;;16.33;;
4963;SDS011;2497;47.410;9.740;2022-08-19T03:03:32;31.13;;;17.17;;
4963;SDS011;2497;47.410;9.740;2022-08-19T03:06:05;39.23;;;15.83;;
4963;SDS011;2497;47.410;9.740;2022-08-19T03:08:34;32.97;;;16.17;;
4963;SDS011;2497;47.410;9.740;2022-08-19T03:11:02;30.50;;;14.53;;
4963;SDS011;2497;47.410;9.740;2022-08-19T03:13:30;24.57;;;13.60;;
4963;SDS011;2497;47.410;9.740;2022-08-19T03:15:58;24.77;;;14.50;;
4963;SDS011;2497;47.410;9.740;2022-08-19T03:18:26;22.50;;;14.00;;
4963;SDS011;2497;47.410;9.740;2022-08-19T03:20:53;24.47;;;14.20;;
4963;SDS011;2497;47.410;9.740;2022-08-19T03:23:23;20.63;;;12.67;;
4963;SDS011;2497;47.410;9.740;2022-08-19T03:25:51;23.53;;;13.57;;
4963;SDS011;2497;47.410;9.740;2022-08-19T03:28:19;26.10;;;13.60;;
4963;SDS011;2497;47.410;9.740;2022-08-19T03:30:56;23.60;;;13.53;;
4963;SDS011;2497;47.410;9.740;2022-08-19T03:33:25;18.60;;;11.40;;
4963;SDS011;2497;47.410;9.740;2022-08-19T03:36:00;24.90;;;13.87;;
4963;SDS011;2497;47.410;9.740;2022-08-19T03:38:32;28.30;;;13.17;;
4963;SDS011;2497;47.410;9.740;2022-08-19T03:41:02;24.47;;;14.20;;
4963;SDS011;2497;47.410;9.740;2022-08-19T03:43:31;26.50;;;14.20;;
4963;SDS011;2497;47.410;9.740;2022-08-19T03:46:02;24.43;;;13.57;;
4963;SDS011;2497;47.410;9.740;2022-08-19T03:48:32;24.53;;;15.53;;
4963;SDS011;2497;47.410;9.740;2022-08-19T03:51:00;25.33;;;13.60;;
4963;SDS011;2497;47.410;9.740;2022-08-19T03:53:28;24.10;;;13.37;;
4963;SDS011;2497;47.410;9.740;2022-08-19T03:55:58;27.40;;;14.23;;
4963;SDS011;2497;47.410;9.740;2022-08-19T03:58:26;23.57;;;13.67;;
4963;SDS011;2497;47.410;9.740;2022-08-19T04:00:54;22.17;;;13.30;;
4963;SDS011;2497;47.410;9.740;2022-08-19T04:03:22;23.87;;;14.07;;
4963;SDS011;2497;47.410;9.740;2022-08-19T04:05:49;28.53;;;15.03;;
4963;SDS011;2497;47.410;9.740;2022-08-19T04:08:17;25.03;;;13.93;;
4963;SDS011;2497;47.410;9.740;2022-08-19T04:10:45;30.37;;;14.53;;
4963;SDS011;2497;47.410;9.740;2022-08-19T04:13:14;31.30;;;16.30;;
4963;SDS011;2497;47.410;9.740;2022-08-19T04:15:43;27.67;;;14.60;;
4963;SDS011;2497;47.410;9.740;2022-08-19T04:18:11;27.40;;;14.77;;
4963;SDS011;2497;47.410;9.740;2022-08-19T04:20:40;29.03;;;14.40;;
4963;SDS011;2497;47.410;9.740;2022-08-19T04:23:09;33.30;;;15.30;;
4963;SDS011;2497;47.410;9.740;2022-08-19T04:25:37;26.80;;;16.27;;
4963;SDS011;2497;47.410;9.740;2022-08-19T04:28:06;20.90;;;13.30;;
4963;SDS011;2497;47.410;9.740;2022-08-19T04:30:39;29.83;;;15.20;;
4963;SDS011;2497;47.410;9.740;2022-08-19T04:33:08;30.03;;;15.60;;
4963;SDS011;2497;47.410;9.740;2022-08-19T04:35:37;24.73;;;14.90;;
4963;SDS011;2497;47.410;9.740;2022-08-19T04:38:05;25.90;;;13.90;;
4963;SDS011;2497;47.410;9.740;2022-08-19T04:40:33;23.03;;;14.03;;
4963;SDS011;2497;47.410;9.740;2022-08-19T04:43:22;31.10;;;14.23;;
4963;SDS011;2497;47.410;9.740;2022-08-19T04:45:52;27.80;;;14.40;;
4963;SDS011;2497;47.410;9.740;2022-08-19T04:48:20;21.50;;;13.07;;
4963;SDS011;2497;47.410;9.740;2022-08-19T04:50:50;26.67;;;14.80;;
4963;SDS011;2497;47.410;9.740;2022-08-19T04:53:22;25.70;;;14.30;;
4963;SDS011;2497;47.410;9.740;2022-08-19T04:55:54;23.93;;;13.20;;
4963;SDS011;2497;47.410;9.740;2022-08-19T04:58:21;23.93;;;13.63;;
4963;SDS011;2497;47.410;9.740;2022-08-19T05:00:49;24.73;;;14.03;;
4963;SDS011;2497;47.410;9.740;2022-08-19T05:03:23;22.67;;;13.40;;
4963;SDS011;2497;47.410;9.740;2022-08-19T05:05:50;29.23;;;14.63;;
4963;SDS011;2497;47.410;9.740;2022-08-19T05:08:19;25.43;;;13.93;;
4963;SDS011;2497;47.410;9.740;2022-08-19T05:10:48;26.23;;;14.73;;
4963;SDS011;2497;47.410;9.740;2022-08-19T05:13:18;24.97;;;14.30;;
4963;SDS011;2497;47.410;9.740;2022-08-19T05:15:54;24.30;;;15.37;;
4963;SDS011;2497;47.410;9.740;2022-08-19T05:18:23;23.10;;;13.37;;
4963;SDS011;2497;47.410;9.740;2022-08-19T05:21:08;24.73;;;15.43;;
4963;SDS011;2497;47.410;9.740;2022-08-19T05:23:53;22.03;;;13.47;;
4963;SDS011;2497;47.410;9.740;2022-08-19T05:26:21;33.13;;;15.40;;
4963;SDS011;2497;47.410;9.740;2022-08-19T05:28:49;26.00;;;15.00;;
4963;SDS011;2497;47.410;9.740;2022-08-19T05:31:17;24.73;;;13.90;;
4963;SDS011;2497;47.410;9.740;2022-08-19T05:33:45;27.00;;;15.90;;
4963;SDS011;2497;47.410;9.740;2022-08-19T05:36:12;29.77;;;16.30;;
4963;SDS011;2497;47.410;9.740;2022-08-19T05:38:40;35.77;;;17.63;;
4963;SDS011;2497;47.410;9.740;2022-08-19T05:41:08;38.67;;;18.17;;
4963;SDS011;2497;47.410;9.740;2022-08-19T05:43:36;42.70;;;19.93;;
4963;SDS011;2497;47.410;9.740;2022-08-19T05:46:03;40.83;;;20.23;;
4963;SDS011;2497;47.410;9.740;2022-08-19T05:48:32;38.97;;;20.23;;
4963;SDS011;2497;47.410;9.740;2022-08-19T05:51:03;45.03;;;22.27;;
4963;SDS011;2497;47.410;9.740;2022-08-19T05:53:31;49.20;;;20.80;;
4963;SDS011;2497;47.410;9.740;2022-08-19T05:56:03;41.37;;;19.63;;
4963;SDS011;2497;47.410;9.740;2022-08-19T05:58:30;37.43;;;18.43;;
4963;SDS011;2497;47.410;9.740;2022-08-19T06:00:58;43.70;;;21.47;;
4963;SDS011;2497;47.410;9.740;2022-08-19T06:03:29;34.97;;;17.50;;
4963;SDS011;2497;47.410;9.740;2022-08-19T06:05:59;35.30;;;17.90;;
4963;SDS011;2497;47.410;9.740;2022-08-19T06:08:27;38.93;;;17.90;;
4963;SDS011;2497;47.410;9.740;2022-08-19T06:10:55;35.83;;;19.30;;
4963;SDS011;2497;47.410;9.740;2022-08-19T06:13:23;43.57;;;20.67;;
4963;SDS011;2497;47.410;9.740;2022-08-19T06:15:50;41.30;;;19.73;;
4963;SDS011;2497;47.410;9.740;2022-08-19T06:18:18;42.37;;;19.43;;
4963;SDS011;2497;47.410;9.740;2022-08-19T06:20:45;40.63;;;19.50;;
4963;SDS011;2497;47.410;9.740;2022-08-19T06:23:15;39.73;;;17.47;;
4963;SDS011;2497;47.410;9.740;2022-08-19T06:25:43;40.60;;;16.40;;
4963;SDS011;2497;47.410;9.740;2022-08-19T06:28:10;32.73;;;16.50;;
4963;SDS011;2497;47.410;9.740;2022-08-19T06:30:38;39.40;;;17.23;;
4963;SDS011;2497;47.410;9.740;2022-08-19T06:33:05;28.10;;;14.93;;
4963;SDS011;2497;47.410;9.740;2022-08-19T06:35:37;28.83;;;13.83;;
4963;SDS011;2497;47.410;9.740;2022-08-19T06:38:05;21.90;;;11.10;;
4963;SDS011;2497;47.410;9.740;2022-08-19T06:40:36;25.40;;;12.30;;
4963;SDS011;2497;47.410;9.740;2022-08-19T06:43:03;21.17;;;11.30;;
4963;SDS011;2497;47.410;9.740;2022-08-19T06:45:31;23.77;;;11.47;;
4963;SDS011;2497;47.410;9.740;2022-08-19T06:47:59;28.63;;;12.50;;
4963;SDS011;2497;47.410;9.740;2022-08-19T06:50:27;27.67;;;14.90;;
4963;SDS011;2497;47.410;9.740;2022-08-19T06:52:54;30.13;;;13.20;;
4963;SDS011;2497;47.410;9.740;2022-08-19T06:55:21;30.50;;;14.93;;
4963;SDS011;2497;47.410;9.740;2022-08-19T06:57:51;31.37;;;17.03;;
4963;SDS011;2497;47.410;9.740;2022-08-19T07:00:18;31.30;;;14.93;;
4963;SDS011;2497;47.410;9.740;2022-08-19T07:02:45;34.30;;;16.10;;
4963;SDS011;2497;47.410;9.740;2022-08-19T07:05:12;30.10;;;15.40;;
4963;SDS011;2497;47.410;9.740;2022-08-19T07:07:40;31.07;;;15.80;;
4963;SDS011;2497;47.410;9.740;2022-08-19T07:10:08;30.23;;;16.07;;
4963;SDS011;2497;47.410;9.740;2022-08-19T07:12:35;35.33;;;16.43;;
4963;SDS011;2497;47.410;9.740;2022-08-19T07:15:05;27.63;;;13.83;;
4963;SDS011;2497;47.410;9.740;2022-08-19T07:17:34;34.97;;;16.67;;
4963;SDS011;2497;47.410;9.740;2022-08-19T07:20:04;34.20;;;17.00;;
4963;SDS011;2497;47.410;9.740;2022-08-19T07:22:32;39.30;;;18.07;;
4963;SDS011;2497;47.410;9.740;2022-08-19T07:25:00;37.10;;;17.77;;
4963;SDS011;2497;47.410;9.740;2022-08-19T07:27:27;34.30;;;16.63;;
4963;SDS011;2497;47.410;9.740;2022-08-19T07:29:55;30.53;;;15.90;;
4963;SDS011;2497;47.410;9.740;2022-08-19T07:32:24;27.80;;;14.20;;
4963;SDS011;2497;47.410;9.740;2022-08-19T07:34:52;29.10;;;14.40;;
4963;SDS011;2497;47.410;9.740;2022-08-19T07:37:19;30.87;;;14.67;;
4963;SDS011;2497;47.410;9.740;2022-08-19T07:39:46;32.23;;;15.00;;
4963;SDS011;2497;47.410;9.740;2022-08-19T07:42:14;32.50;;;15.60;;
4963;SDS011;2497;47.410;9.740;2022-08-19T07:44:43;32.83;;;14.53;;
4963;SDS011;2497;47.410;9.740;2022-08-19T07:47:10;31.23;;;15.23;;
4963;SDS011;2497;47.410;9.740;2022-08-19T07:49:39;27.50;;;14.40;;
4963;SDS011;2497;47.410;9.740;2022-08-19T07:52:07;28.33;;;14.27;;
4963;SDS011;2497;47.410;9.740;2022-08-19T07:54:37;30.23;;;15.20;;
4963;SDS011;2497;47.410;9.740;2022-08-19T07:57:06;36.00;;;15.83;;
4963;SDS011;2497;47.410;9.740;2022-08-19T07:59:34;30.07;;;15.17;;
4963;SDS011;2497;47.410;9.740;2022-08-19T08:02:01;35.13;;;16.93;;
4963;SDS011;2497;47.410;9.740;2022-08-19T08:04:30;29.90;;;14.80;;
4963;SDS011;2497;47.410;9.740;2022-08-19T08:07:16;30.57;;;14.47;;
4963;SDS011;2497;47.410;9.740;2022-08-19T08:10:02;37.70;;;16.23;;
4963;SDS011;2497;47.410;9.740;2022-08-19T08:12:32;45.17;;;20.20;;
4963;SDS011;2497;47.410;9.740;2022-08-19T08:15:02;59.93;;;21.53;;
4963;SDS011;2497;47.410;9.740;2022-08-19T08:17:33;51.43;;;20.80;;
4963;SDS011;2497;47.410;9.740;2022-08-19T08:20:02;60.47;;;21.67;;
4963;SDS011;2497;47.410;9.740;2022-08-19T08:22:33;56.17;;;21.97;;
4963;SDS011;2497;47.410;9.740;2022-08-19T08:25:18;45.70;;;22.13;;
4963;SDS011;2497;47.410;9.740;2022-08-19T08:27:48;57.97;;;24.10;;
4963;SDS011;2497;47.410;9.740;2022-08-19T08:30:17;55.70;;;22.87;;
4963;SDS011;2497;47.410;9.740;2022-08-19T08:32:47;48.10;;;21.77;;
4963;SDS011;2497;47.410;9.740;2022-08-19T08:35:15;58.73;;;25.63;;
4963;SDS011;2497;47.410;9.740;2022-08-19T08:37:46;61.67;;;24.63;;
4963;SDS011;2497;47.410;9.740;2022-08-19T08:40:16;52.67;;;21.40;;
4963;SDS011;2497;47.410;9.740;2022-08-19T08:42:49;53.60;;;23.50;;
4963;SDS011;2497;47.410;9.740;2022-08-19T08:45:23;54.13;;;23.30;;
4963;SDS011;2497;47.410;9.740;2022-08-19T08:47:51;55.27;;;23.50;;
4963;SDS011;2497;47.410;9.740;2022-08-19T08:50:25;59.27;;;22.80;;
4963;SDS011;2497;47.410;9.740;2022-08-19T08:52:59;60.00;;;23.90;;
4963;SDS011;2497;47.410;9.740;2022-08-19T08:55:27;54.83;;;23.67;;
4963;SDS011;2497;47.410;9.740;2022-08-19T08:57:58;57.23;;;22.90;;
4963;SDS011;2497;47.410;9.740;2022-08-19T09:00:29;60.33;;;24.30;;
4963;SDS011;2497;47.410;9.740;2022-08-19T09:02:59;59.33;;;23.20;;
4963;SDS011;2497;47.410;9.740;2022-08-19T09:05:30;55.47;;;24.77;;
4963;SDS011;2497;47.410;9.740;2022-08-19T09:08:13;57.60;;;25.10;;
4963;SDS011;2497;47.410;9.740;2022-08-19T09:10:46;52.73;;;22.77;;
4963;SDS011;2497;47.410;9.740;2022-08-19T09:13:20;58.67;;;23.40;;
4963;SDS011;2497;47.410;9.740;2022-08-19T09:15:57;50.40;;;22.60;;
4963;SDS011;2497;47.410;9.740;2022-08-19T09:18:38;51.40;;;21.40;;
4963;SDS011;2497;47.410;9.740;2022-08-19T09:21:07;58.20;;;23.20;;
4963;SDS011;2497;47.410;9.740;2022-08-19T09:23:36;56.53;;;25.40;;
4963;SDS011;2497;47.410;9.740;2022-08-19T09:26:07;47.00;;;22.63;;
4963;SDS011;2497;47.410;9.740;2022-08-19T09:28:38;50.93;;;23.23;;
4963;SDS011;2497;47.410;9.740;2022-08-19T09:31:08;52.60;;;23.67;;
4963;SDS011;2497;47.410;9.740;2022-08-19T09:33:37;51.37;;;22.50;;
4963;SDS011;2497;47.410;9.740;2022-08-19T09:36:05;55.50;;;22.50;;
4963;SDS011;2497;47.410;9.740;2022-08-19T09:38:36;43.40;;;20.47;;
4963;SDS011;2497;47.410;9.740;2022-08-19T09:41:06;52.30;;;21.43;;
4963;SDS011;2497;47.410;9.740;2022-08-19T09:43:37;45.10;;;20.90;;
4963;SDS011;2497;47.410;9.740;2022-08-19T09:46:06;43.50;;;20.63;;
4963;SDS011;2497;47.410;9.740;2022-08-19T09:48:35;44.50;;;21.00;;
4963;SDS011;2497;47.410;9.740;2022-08-19T09:51:03;45.00;;;20.67;;
4963;SDS011;2497;47.410;9.740;2022-08-19T09:53:33;50.70;;;21.60;;
4963;SDS011;2497;47.410;9.740;2022-08-19T09:56:03;42.83;;;22.87;;
4963;SDS011;2497;47.410;9.740;2022-08-19T09:58:31;39.87;;;21.87;;
4963;SDS011;2497;47.410;9.740;2022-08-19T10:01:00;46.10;;;21.30;;
4963;SDS011;2497;47.410;9.740;2022-08-19T10:03:30;41.13;;;20.50;;
4963;SDS011;2497;47.410;9.740;2022-08-19T10:05:59;41.47;;;20.20;;
4963;SDS011;2497;47.410;9.740;2022-08-19T10:08:29;48.50;;;22.67;;
4963;SDS011;2497;47.410;9.740;2022-08-19T10:10:58;54.90;;;24.00;;
4963;SDS011;2497;47.410;9.740;2022-08-19T10:13:29;64.37;;;24.70;;
4963;SDS011;2497;47.410;9.740;2022-08-19T10:16:03;54.90;;;23.93;;
4963;SDS011;2497;47.410;9.740;2022-08-19T10:18:32;48.37;;;22.30;;
4963;SDS011;2497;47.410;9.740;2022-08-19T10:21:04;48.67;;;23.73;;
4963;SDS011;2497;47.410;9.740;2022-08-19T10:23:35;58.40;;;24.63;;
4963;SDS011;2497;47.410;9.740;2022-08-19T10:26:03;61.13;;;26.37;;
4963;SDS011;2497;47.410;9.740;2022-08-19T10:28:34;56.33;;;24.73;;
4963;SDS011;2497;47.410;9.740;2022-08-19T10:31:04;60.17;;;24.60;;
4963;SDS011;2497;47.410;9.740;2022-08-19T10:33:33;49.70;;;24.10;;
4963;SDS011;2497;47.410;9.740;2022-08-19T10:36:01;50.80;;;22.97;;
4963;SDS011;2497;47.410;9.740;2022-08-19T10:38:29;53.20;;;22.73;;
4963;SDS011;2497;47.410;9.740;2022-08-19T10:40:56;39.77;;;20.17;;
4963;SDS011;2497;47.410;9.740;2022-08-19T10:43:24;43.10;;;21.30;;
4963;SDS011;2497;47.410;9.740;2022-08-19T10:45:53;40.70;;;19.63;;
4963;SDS011;2497;47.410;9.740;2022-08-19T10:48:24;50.40;;;20.53;;
4963;SDS011;2497;47.410;9.740;2022-08-19T10:50:51;36.33;;;18.40;;
4963;SDS011;2497;47.410;9.740;2022-08-19T10:53:36;33.77;;;15.10;;
4963;SDS011;2497;47.410;9.740;2022-08-19T10:56:03;30.50;;;15.60;;
4963;SDS011;2497;47.410;9.740;2022-08-19T10:58:49;26.97;;;13.40;;
4963;SDS011;2497;47.410;9.740;2022-08-19T11:01:17;29.00;;;13.63;;
4963;SDS011;2497;47.410;9.740;2022-08-19T11:03:45;26.00;;;10.70;;
4963;SDS011;2497;47.410;9.740;2022-08-19T11:06:13;24.90;;;9.07;;
4963;SDS011;2497;47.410;9.740;2022-08-19T11:08:40;17.17;;;8.43;;
4963;SDS011;2497;47.410;9.740;2022-08-19T11:11:10;29.10;;;8.80;;
4963;SDS011;2497;47.410;9.740;2022-08-19T11:13:39;12.53;;;6.37;;
4963;SDS011;2497;47.410;9.740;2022-08-19T11:16:09;22.63;;;6.83;;
4963;SDS011;2497;47.410;9.740;2022-08-19T11:18:41;21.70;;;6.23;;
4963;SDS011;2497;47.410;9.740;2022-08-19T11:21:12;18.73;;;6.03;;
4963;SDS011;2497;47.410;9.740;2022-08-19T11:23:42;7.40;;;4.50;;
4963;SDS011;2497;47.410;9.740;2022-08-19T11:26:10;57.80;;;7.10;;
4963;SDS011;2497;47.410;9.740;2022-08-19T11:28:38;32.00;;;6.00;;
4963;SDS011;2497;47.410;9.740;2022-08-19T11:31:09;10.93;;;4.87;;
4963;SDS011;2497;47.410;9.740;2022-08-19T11:33:37;12.70;;;4.30;;
4963;SDS011;2497;47.410;9.740;2022-08-19T11:36:07;5.83;;;3.70;;
4963;SDS011;2497;47.410;9.740;2022-08-19T11:38:35;31.77;;;4.40;;
4963;SDS011;2497;47.410;9.740;2022-08-19T11:41:04;24.70;;;3.60;;
4963;SDS011;2497;47.410;9.740;2022-08-19T11:43:33;10.13;;;3.80;;
4963;SDS011;2497;47.410;9.740;2022-08-19T11:46:03;11.37;;;2.47;;
4963;SDS011;2497;47.410;9.740;2022-08-19T11:48:33;8.10;;;3.90;;
4963;SDS011;2497;47.410;9.740;2022-08-19T11:51:04;9.73;;;3.07;;
4963;SDS011;2497;47.410;9.740;2022-08-19T11:53:34;6.63;;;2.43;;
4963;SDS011;2497;47.410;9.740;2022-08-19T11:56:02;12.07;;;2.70;;
4963;SDS011;2497;47.410;9.740;2022-08-19T11:58:31;3.20;;;2.10;;
4963;SDS011;2497;47.410;9.740;2022-08-19T12:00:59;7.17;;;2.50;;
4963;SDS011;2497;47.410;9.740;2022-08-19T12:03:27;9.23;;;3.50;;
4963;SDS011;2497;47.410;9.740;2022-08-19T12:05:54;3.43;;;2.27;;
4963;SDS011;2497;47.410;9.740;2022-08-19T12:08:23;6.90;;;2.40;;
4963;SDS011;2497;47.410;9.740;2022-08-19T12:10:51;13.80;;;2.87;;
4963;SDS011;2497;47.410;9.740;2022-08-19T12:13:19;4.77;;;2.00;;
4963;SDS011;2497;47.410;9.740;2022-08-19T12:15:47;4.10;;;2.37;;
4963;SDS011;2497;47.410;9.740;2022-08-19T12:18:14;4.83;;;2.20;;
4963;SDS011;2497;47.410;9.740;2022-08-19T12:20:42;5.33;;;2.90;;
4963;SDS011;2497;47.410;9.740;2022-08-19T12:23:10;6.03;;;2.10;;
4963;SDS011;2497;47.410;9.740;2022-08-19T12:25:45;7.33;;;2.90;;
4963;SDS011;2497;47.410;9.740;2022-08-19T12:28:16;4.00;;;2.70;;
4963;SDS011;2497;47.410;9.740;2022-08-19T12:30:44;11.70;;;2.53;;
4963;SDS011;2497;47.410;9.740;2022-08-19T12:33:12;12.20;;;3.53;;
4963;SDS011;2497;47.410;9.740;2022-08-19T12:35:40;4.10;;;2.00;;
4963;SDS011;2497;47.410;9.740;2022-08-19T12:38:09;4.67;;;2.50;;
4963;SDS011;2497;47.410;9.740;2022-08-19T12:40:37;5.13;;;2.73;;
4963;SDS011;2497;47.410;9.740;2022-08-19T12:43:08;3.47;;;2.30;;
4963;SDS011;2497;47.410;9.740;2022-08-19T12:45:36;3.30;;;2.40;;
4963;SDS011;2497;47.410;9.740;2022-08-19T12:48:04;12.40;;;2.30;;
4963;SDS011;2497;47.410;9.740;2022-08-19T12:50:34;6.40;;;2.77;;
4963;SDS011;2497;47.410;9.740;2022-08-19T12:53:02;4.90;;;2.33;;
4963;SDS011;2497;47.410;9.740;2022-08-19T12:55:29;4.17;;;2.10;;
4963;SDS011;2497;47.410;9.740;2022-08-19T12:57:57;3.83;;;2.20;;
4963;SDS011;2497;47.410;9.740;2022-08-19T13:00:29;8.90;;;2.30;;
4963;SDS011;2497;47.410;9.740;2022-08-19T13:02:58;5.83;;;2.70;;
4963;SDS011;2497;47.410;9.740;2022-08-19T13:05:26;23.27;;;3.10;;
4963;SDS011;2497;47.410;9.740;2022-08-19T13:07:56;6.73;;;2.47;;
4963;SDS011;2497;47.410;9.740;2022-08-19T13:10:25;6.10;;;2.57;;
4963;SDS011;2497;47.410;9.740;2022-08-19T13:12:56;9.20;;;3.07;;
4963;SDS011;2497;47.410;9.740;2022-08-19T13:15:29;6.73;;;2.57;;
4963;SDS011;2497;47.410;9.740;2022-08-19T13:18:01;8.90;;;2.43;;
4963;SDS011;2497;47.410;9.740;2022-08-19T13:20:30;3.00;;;1.87;;
4963;SDS011;2497;47.410;9.740;2022-08-19T13:22:57;5.23;;;2.77;;
4963;SDS011;2497;47.410;9.740;2022-08-19T13:25:25;8.40;;;2.97;;
4963;SDS011;2497;47.410;9.740;2022-08-19T13:27:52;5.80;;;2.20;;
4963;SDS011;2497;47.410;9.740;2022-08-19T13:30:20;6.73;;;1.97;;
4963;SDS011;2497;47.410;9.740;2022-08-19T13:33:07;8.63;;;2.87;;
4963;SDS011;2497;47.410;9.740;2022-08-19T13:35:39;5.60;;;2.67;;
4963;SDS011;2497;47.410;9.740;2022-08-19T13:38:08;7.60;;;3.00;;
4963;SDS011;2497;47.410;9.740;2022-08-19T13:40:35;38.83;;;5.30;;
4963;SDS011;2497;47.410;9.740;2022-08-19T13:43:11;8.40;;;2.93;;
4963;SDS011;2497;47.410;9.740;2022-08-19T13:45:45;7.00;;;3.17;;
4963;SDS011;2497;47.410;9.740;2022-08-19T13:48:15;7.00;;;3.43;;
4963;SDS011;2497;47.410;9.740;2022-08-19T13:50:44;4.40;;;2.60;;
4963;SDS011;2497;47.410;9.740;2022-08-19T13:53:13;5.20;;;3.50;;
4963;SDS011;2497;47.410;9.740;2022-08-19T13:55:41;16.37;;;4.10;;
4963;SDS011;2497;47.410;9.740;2022-08-19T13:58:10;6.07;;;3.63;;
4963;SDS011;2497;47.410;9.740;2022-08-19T14:00:41;8.10;;;4.40;;
4963;SDS011;2497;47.410;9.740;2022-08-19T14:03:10;7.30;;;3.63;;
4963;SDS011;2497;47.410;9.740;2022-08-19T14:05:39;10.33;;;5.23;;
4963;SDS011;2497;47.410;9.740;2022-08-19T14:08:07;9.60;;;5.27;;
4963;SDS011;2497;47.410;9.740;2022-08-19T14:10:35;8.00;;;4.70;;
4963;SDS011;2497;47.410;9.740;2022-08-19T14:13:02;13.60;;;5.40;;
4963;SDS011;2497;47.410;9.740;2022-08-19T14:15:30;12.27;;;5.27;;
4963;SDS011;2497;47.410;9.740;2022-08-19T14:17:58;16.87;;;5.80;;
4963;SDS011;2497;47.410;9.740;2022-08-19T14:20:26;11.53;;;4.80;;
4963;SDS011;2497;47.410;9.740;2022-08-19T14:22:55;8.20;;;4.83;;
4963;SDS011;2497;47.410;9.740;2022-08-19T14:25:25;14.93;;;4.97;;
4963;SDS011;2497;47.410;9.740;2022-08-19T14:27:54;14.97;;;5.20;;
4963;SDS011;2497;47.410;9.740;2022-08-19T14:30:24;20.53;;;7.13;;
4963;SDS011;2497;47.410;9.740;2022-08-19T14:32:58;13.23;;;7.10;;
4963;SDS011;2497;47.410;9.740;2022-08-19T14:35:27;15.50;;;6.37;;
4963;SDS011;2497;47.410;9.740;2022-08-19T14:37:59;10.47;;;6.53;;
4963;SDS011;2497;47.410;9.740;2022-08-19T14:40:27;13.10;;;5.90;;
4963;SDS011;2497;47.410;9.740;2022-08-19T14:42:57;15.73;;;7.33;;
4963;SDS011;2497;47.410;9.740;2022-08-19T14:45:29;12.73;;;7.80;;
4963;SDS011;2497;47.410;9.740;2022-08-19T14:47:57;14.77;;;7.37;;
4963;SDS011;2497;47.410;9.740;2022-08-19T14:50:25;12.30;;;7.10;;
4963;SDS011;2497;47.410;9.740;2022-08-19T14:53:02;20.87;;;9.03;;
4963;SDS011;2497;47.410;9.740;2022-08-19T14:55:34;14.60;;;8.90;;
4963;SDS011;2497;47.410;9.740;2022-08-19T14:58:01;15.77;;;8.70;;
4963;SDS011;2497;47.410;9.740;2022-08-19T15:00:29;15.77;;;8.93;;
4963;SDS011;2497;47.410;9.740;2022-08-19T15:02:56;22.03;;;9.70;;
4963;SDS011;2497;47.410;9.740;2022-08-19T15:05:24;22.63;;;10.93;;
4963;SDS011;2497;47.410;9.740;2022-08-19T15:07:52;26.97;;;10.47;;